< < Back
Terminal Aerodrome Forecast


Current Version              Previous Versions:   1  2  3  4  5  6  7  8  9  

Terminal Aerodrome Forecast

499
FTUS44 KBMX 291138
TAFBHM
TAF
KBHM 291138Z 2912/3012 00000KT P6SM SKC
     FM291800 14007KT P6SM FEW250
     FM292100 31007KT P6SM BKN250
     FM292300 27008KT P6SM VCTS BKN050CB
     FM300300 16004KT 6SM BR BKN025=

Latest METAR

564
SAUS70 KWBC 292100 RRI
MTRBHM
METAR KBHM 292053Z 14007KT 10SM FEW050 OVC250 29/14 A2995 RMK AO2 SLP133
T02890144 56010


USA.gov is the U.S. government's official web portal to all federal, state and local government web resources and services.